Time,TemperatureF,DewpointF,PressureIn,WindDirection,WindDirectionDegrees,WindSpeedMPH,WindSpeedGustMPH,Humidity,HourlyPrecipIn,Conditions,Clouds,dailyrainin,SoftwareType,DateUTC
2013-07-09 00:02:00,69.0,58.0,29.80,East,90,2.0,13.0,67,0.00,,,0.00,,2013-07-09 05:02:00,
2013-07-09 00:11:00,69.0,58.0,29.80,East,90,2.0,13.0,67,0.00,,,0.00,,2013-07-09 05:11:00,
2013-07-09 00:22:00,69.0,58.0,29.80,NW,308,2.0,10.0,69,0.00,,,0.00,,2013-07-09 05:22:00,
2013-07-09 00:33:00,69.0,58.0,29.80,NW,308,2.0,10.0,69,0.00,,,0.00,,2013-07-09 05:33:00,
2013-07-09 00:42:00,69.0,58.0,29.80,NW,308,2.0,10.0,69,0.00,,,0.00,,2013-07-09 05:42:00,
2013-07-09 00:52:00,68.0,58.0,29.80,NE,54,1.0,12.0,70,0.00,,,0.00,,2013-07-09 05:52:00,
2013-07-09 01:01:00,68.0,58.0,29.80,NE,54,1.0,12.0,70,0.00,,,0.00,,2013-07-09 06:01:00,
2013-07-09 01:11:00,68.0,58.0,29.80,NE,54,1.0,12.0,70,0.00,,,0.00,,2013-07-09 06:11:00,
2013-07-09 01:22:00,67.0,57.0,29.81,NE,56,3.0,8.0,71,0.00,,,0.00,,2013-07-09 06:22:00,
2013-07-09 01:33:00,67.0,57.0,29.81,NE,56,3.0,8.0,71,0.00,,,0.00,,2013-07-09 06:33:00,
2013-07-09 01:43:00,67.0,57.0,29.81,NE,56,3.0,8.0,71,0.00,,,0.00,,2013-07-09 06:43:00,
2013-07-09 01:53:00,66.0,57.0,29.80,NE,40,1.0,10.0,73,0.00,,,0.00,,2013-07-09 06:53:00,
2013-07-09 02:02:00,66.0,57.0,29.80,NE,40,1.0,10.0,73,0.00,,,0.00,,2013-07-09 07:02:00,
2013-07-09 02:11:00,66.0,57.0,29.80,NE,40,1.0,10.0,73,0.00,,,0.00,,2013-07-09 07:11:00,
2013-07-09 02:22:00,65.0,57.0,29.80,NE,38,0.0,6.0,75,0.00,,,0.00,,2013-07-09 07:22:00,
2013-07-09 02:33:00,65.0,57.0,29.80,NE,38,0.0,6.0,75,0.00,,,0.00,,2013-07-09 07:33:00,
2013-07-09 02:43:00,65.0,57.0,29.80,NE,38,0.0,6.0,75,0.00,,,0.00,,2013-07-09 07:43:00,
2013-07-09 02:53:00,65.0,57.0,29.80,South,175,1.0,7.0,76,0.00,,,0.00,,2013-07-09 07:53:00,
2013-07-09 03:01:00,65.0,57.0,29.80,South,175,1.0,7.0,76,0.00,,,0.00,,2013-07-09 08:01:00,
2013-07-09 03:11:00,65.0,57.0,29.80,South,175,1.0,7.0,76,0.00,,,0.00,,2013-07-09 08:11:00,
2013-07-09 03:22:00,63.0,56.0,29.81,SSE,165,0.0,2.0,79,0.00,,,0.00,,2013-07-09 08:22:00,
2013-07-09 03:33:00,63.0,56.0,29.81,SSE,165,0.0,2.0,79,0.00,,,0.00,,2013-07-09 08:33:00,
2013-07-09 03:43:00,63.0,56.0,29.81,SSE,165,0.0,2.0,79,0.00,,,0.00,,2013-07-09 08:43:00,
2013-07-09 03:52:00,61.0,55.0,29.83,SSE,165,0.0,1.0,82,0.00,,,0.00,,2013-07-09 08:52:00,
2013-07-09 04:02:00,61.0,55.0,29.83,SSE,165,0.0,1.0,82,0.00,,,0.00,,2013-07-09 09:02:00,
2013-07-09 04:12:00,61.0,55.0,29.83,SSE,165,0.0,1.0,82,0.00,,,0.00,,2013-07-09 09:12:00,
2013-07-09 04:22:00,60.0,56.0,29.82,SSE,165,0.0,1.0,86,0.00,,,0.00,,2013-07-09 09:22:00,
2013-07-09 04:34:00,60.0,56.0,29.82,SSE,165,0.0,1.0,86,0.00,,,0.00,,2013-07-09 09:34:00,
2013-07-09 04:42:00,60.0,56.0,29.82,SSE,165,0.0,1.0,86,0.00,,,0.00,,2013-07-09 09:42:00,
2013-07-09 04:53:00,60.0,56.0,29.82,SSE,165,0.0,1.0,86,0.00,,,0.00,,2013-07-09 09:53:00,
2013-07-09 05:01:00,60.0,56.0,29.82,SSE,165,0.0,1.0,86,0.00,,,0.00,,2013-07-09 10:01:00,
2013-07-09 05:11:00,60.0,56.0,29.82,SSE,165,0.0,1.0,86,0.00,,,0.00,,2013-07-09 10:11:00,
2013-07-09 05:22:00,59.0,55.0,29.83,SSE,165,0.0,3.0,86,0.00,,,0.00,,2013-07-09 10:22:00,
2013-07-09 05:33:00,59.0,55.0,29.83,SSE,165,0.0,3.0,86,0.00,,,0.00,,2013-07-09 10:33:00,
2013-07-09 05:42:00,59.0,55.0,29.83,SSE,165,0.0,3.0,86,0.00,,,0.00,,2013-07-09 10:42:00,
2013-07-09 05:52:00,59.0,55.0,29.83,SSE,165,0.0,1.0,86,0.00,,,0.00,,2013-07-09 10:52:00,
2013-07-09 06:01:00,59.0,55.0,29.83,SSE,165,0.0,1.0,86,0.00,,,0.00,,2013-07-09 11:01:00,
2013-07-09 06:11:00,59.0,55.0,29.83,SSE,165,0.0,1.0,86,0.00,,,0.00,,2013-07-09 11:11:00,
2013-07-09 06:22:00,59.0,55.0,29.83,SSE,165,0.0,0.0,87,0.00,,,0.00,,2013-07-09 11:22:00,
2013-07-09 06:33:00,59.0,55.0,29.83,SSE,165,0.0,0.0,87,0.00,,,0.00,,2013-07-09 11:33:00,
2013-07-09 06:42:00,59.0,55.0,29.83,SSE,165,0.0,0.0,87,0.00,,,0.00,,2013-07-09 11:42:00,
2013-07-09 06:53:00,59.0,55.0,29.86,SSE,165,0.0,1.0,87,0.00,,,0.00,,2013-07-09 11:53:00,
2013-07-09 07:02:00,59.0,55.0,29.86,SSE,165,0.0,1.0,87,0.00,,,0.00,,2013-07-09 12:02:00,
2013-07-09 07:11:00,59.0,55.0,29.86,SSE,165,0.0,1.0,87,0.00,,,0.00,,2013-07-09 12:11:00,
2013-07-09 07:22:00,58.0,54.0,29.86,SSE,165,0.0,1.0,88,0.00,,,0.00,,2013-07-09 12:22:00,
2013-07-09 07:33:00,58.0,54.0,29.86,SSE,165,0.0,1.0,88,0.00,,,0.00,,2013-07-09 12:33:00,
2013-07-09 07:43:00,58.0,54.0,29.86,SSE,165,0.0,1.0,88,0.00,,,0.00,,2013-07-09 12:43:00,
2013-07-09 07:52:00,58.0,55.0,29.88,SSE,165,0.0,2.0,89,0.00,,,0.00,,2013-07-09 12:52:00,
2013-07-09 08:01:00,58.0,55.0,29.88,SSE,165,0.0,2.0,89,0.00,,,0.00,,2013-07-09 13:01:00,
2013-07-09 08:11:00,58.0,55.0,29.88,SSE,165,0.0,2.0,89,0.00,,,0.00,,2013-07-09 13:11:00,
2013-07-09 08:22:00,60.0,56.0,29.88,SSE,165,0.0,1.0,88,0.00,,,0.00,,2013-07-09 13:22:00,
2013-07-09 08:33:00,60.0,56.0,29.88,SSE,165,0.0,1.0,88,0.00,,,0.00,,2013-07-09 13:33:00,
2013-07-09 08:43:00,60.0,56.0,29.88,SSE,165,0.0,1.0,88,0.00,,,0.00,,2013-07-09 13:43:00,
2013-07-09 08:53:00,63.0,59.0,29.89,SSE,165,0.0,0.0,87,0.00,,,0.00,,2013-07-09 13:53:00,
2013-07-09 09:01:00,63.0,59.0,29.89,SSE,165,0.0,0.0,87,0.00,,,0.00,,2013-07-09 14:01:00,
2013-07-09 09:11:00,63.0,59.0,29.89,SSE,165,0.0,0.0,87,0.00,,,0.00,,2013-07-09 14:11:00,
2013-07-09 09:22:00,67.0,58.0,29.87,SSE,165,0.0,1.0,74,0.00,,,0.00,,2013-07-09 14:22:00,
2013-07-09 09:34:00,67.0,58.0,29.87,SSE,165,0.0,1.0,74,0.00,,,0.00,,2013-07-09 14:34:00,
2013-07-09 09:43:00,67.0,58.0,29.87,SSE,165,0.0,1.0,74,0.00,,,0.00,,2013-07-09 14:43:00,
2013-07-09 09:53:00,72.0,57.0,29.85,ENE,71,3.0,7.0,60,0.00,,,0.00,,2013-07-09 14:53:00,
2013-07-09 10:01:00,72.0,57.0,29.85,ENE,71,3.0,7.0,60,0.00,,,0.00,,2013-07-09 15:01:00,
2013-07-09 10:12:00,72.0,57.0,29.85,ENE,71,3.0,7.0,60,0.00,,,0.00,,2013-07-09 15:12:00,
2013-07-09 10:22:00,73.0,57.0,29.84,East,97,2.0,7.0,57,0.00,,,0.00,,2013-07-09 15:22:00,
2013-07-09 10:33:00,73.0,57.0,29.84,East,97,2.0,7.0,57,0.00,,,0.00,,2013-07-09 15:33:00,
2013-07-09 10:43:00,73.0,57.0,29.84,East,97,2.0,7.0,57,0.00,,,0.00,,2013-07-09 15:43:00,
2013-07-09 10:52:00,75.0,56.0,29.85,NE,41,2.0,6.0,51,0.00,,,0.00,,2013-07-09 15:52:00,
2013-07-09 11:02:00,75.0,56.0,29.85,NE,41,2.0,6.0,51,0.00,,,0.00,,2013-07-09 16:02:00,
2013-07-09 11:11:00,75.0,56.0,29.85,NE,41,2.0,6.0,51,0.00,,,0.00,,2013-07-09 16:11:00,
2013-07-09 11:22:00,76.0,55.0,29.84,NE,56,1.0,7.0,48,0.00,,,0.00,,2013-07-09 16:22:00,
2013-07-09 11:34:00,76.0,55.0,29.84,NE,56,1.0,7.0,48,0.00,,,0.00,,2013-07-09 16:34:00,
2013-07-09 11:43:00,76.0,55.0,29.84,NE,56,1.0,7.0,48,0.00,,,0.00,,2013-07-09 16:43:00,
2013-07-09 11:53:00,78.0,57.0,29.83,ENE,61,2.0,7.0,49,0.00,,,0.00,,2013-07-09 16:53:00,
2013-07-09 12:02:00,78.0,57.0,29.83,ENE,61,2.0,7.0,49,0.00,,,0.00,,2013-07-09 17:02:00,
2013-07-09 12:11:00,78.0,57.0,29.83,ENE,61,2.0,7.0,49,0.00,,,0.00,,2013-07-09 17:11:00,
2013-07-09 12:22:00,78.0,54.0,29.84,NE,47,2.0,8.0,43,0.00,,,0.00,,2013-07-09 17:22:00,
2013-07-09 12:35:00,78.0,54.0,29.84,NE,47,2.0,8.0,43,0.00,,,0.00,,2013-07-09 17:35:00,
2013-07-09 12:45:00,78.0,54.0,29.84,NE,47,2.0,8.0,43,0.00,,,0.00,,2013-07-09 17:45:00,
2013-07-09 12:53:00,77.0,57.0,29.84,ESE,119,3.0,8.0,51,0.00,,,0.00,,2013-07-09 17:53:00,
2013-07-09 13:02:00,77.0,57.0,29.84,ESE,119,3.0,8.0,51,0.00,,,0.00,,2013-07-09 18:02:00,
2013-07-09 13:11:00,77.0,57.0,29.84,ESE,119,3.0,8.0,51,0.00,,,0.00,,2013-07-09 18:11:00,
2013-07-09 13:22:00,77.0,57.0,29.84,ENE,69,3.0,10.0,51,0.00,,,0.00,,2013-07-09 18:22:00,
2013-07-09 13:32:00,77.0,57.0,29.84,ENE,69,3.0,10.0,51,0.00,,,0.00,,2013-07-09 18:32:00,
2013-07-09 13:43:00,77.0,57.0,29.84,ENE,69,3.0,10.0,51,0.00,,,0.00,,2013-07-09 18:43:00,
2013-07-09 13:52:00,76.0,58.0,29.85,North,8,2.0,10.0,53,0.00,,,0.00,,2013-07-09 18:52:00,
2013-07-09 14:01:00,76.0,58.0,29.85,North,8,2.0,10.0,53,0.00,,,0.00,,2013-07-09 19:01:00,
2013-07-09 14:11:00,76.0,58.0,29.85,North,8,2.0,10.0,53,0.00,,,0.00,,2013-07-09 19:11:00,
2013-07-09 14:22:00,78.0,58.0,29.84,NE,52,2.0,9.0,50,0.00,,,0.00,,2013-07-09 19:22:00,
2013-07-09 14:33:00,78.0,58.0,29.84,NE,52,2.0,9.0,50,0.00,,,0.00,,2013-07-09 19:33:00,
2013-07-09 14:42:00,78.0,58.0,29.84,NE,52,2.0,9.0,50,0.00,,,0.00,,2013-07-09 19:42:00,
2013-07-09 14:52:00,79.0,57.0,29.84,SSW,203,7.0,10.0,47,0.00,,,0.00,,2013-07-09 19:52:00,
2013-07-09 15:01:00,79.0,57.0,29.84,SSW,203,7.0,10.0,47,0.00,,,0.00,,2013-07-09 20:01:00,
2013-07-09 15:11:00,79.0,57.0,29.84,SSW,203,7.0,10.0,47,0.00,,,0.00,,2013-07-09 20:11:00,
2013-07-09 15:21:00,79.0,55.0,29.84,SSE,160,1.0,12.0,44,0.00,,,0.00,,2013-07-09 20:21:00,
2013-07-09 15:32:00,79.0,55.0,29.84,SSE,160,1.0,12.0,44,0.00,,,0.00,,2013-07-09 20:32:00,
2013-07-09 15:43:00,79.0,55.0,29.84,SSE,160,1.0,12.0,44,0.00,,,0.00,,2013-07-09 20:43:00,
2013-07-09 15:52:00,79.0,57.0,29.83,NE,48,2.0,8.0,47,0.00,,,0.00,,2013-07-09 20:52:00,
2013-07-09 16:01:00,79.0,57.0,29.83,NE,48,2.0,8.0,47,0.00,,,0.00,,2013-07-09 21:01:00,
2013-07-09 16:11:00,79.0,57.0,29.83,NE,48,2.0,8.0,47,0.00,,,0.00,,2013-07-09 21:11:00,
2013-07-09 16:22:00,80.0,55.0,29.82,NE,50,2.0,9.0,42,0.00,,,0.00,,2013-07-09 21:22:00,
2013-07-09 16:32:00,80.0,55.0,29.82,NE,50,2.0,9.0,42,0.00,,,0.00,,2013-07-09 21:32:00,
2013-07-09 16:42:00,80.0,55.0,29.82,NE,50,2.0,9.0,42,0.00,,,0.00,,2013-07-09 21:42:00,
2013-07-09 16:52:00,80.0,56.0,29.80,ENE,62,2.0,7.0,44,0.00,,,0.00,,2013-07-09 21:52:00,
2013-07-09 17:01:00,80.0,56.0,29.80,ENE,62,2.0,7.0,44,0.00,,,0.00,,2013-07-09 22:01:00,
2013-07-09 17:11:00,80.0,56.0,29.80,ENE,62,2.0,7.0,44,0.00,,,0.00,,2013-07-09 22:11:00,
2013-07-09 17:22:00,80.0,55.0,29.81,NNE,31,5.0,13.0,42,0.00,,,0.00,,2013-07-09 22:22:00,
2013-07-09 17:33:00,80.0,55.0,29.81,NNE,31,5.0,13.0,42,0.00,,,0.00,,2013-07-09 22:33:00,
2013-07-09 17:42:00,80.0,55.0,29.81,NNE,31,5.0,13.0,42,0.00,,,0.00,,2013-07-09 22:42:00,
2013-07-09 17:53:00,79.0,54.0,29.80,ENE,76,2.0,9.0,42,0.00,,,0.00,,2013-07-09 22:53:00,
2013-07-09 18:02:00,79.0,54.0,29.80,ENE,76,2.0,9.0,42,0.00,,,0.00,,2013-07-09 23:02:00,
2013-07-09 18:11:00,79.0,54.0,29.80,ENE,76,2.0,9.0,42,0.00,,,0.00,,2013-07-09 23:11:00,
2013-07-09 18:22:00,76.0,55.0,29.80,East,82,1.0,7.0,49,0.00,,,0.00,,2013-07-09 23:22:00,
2013-07-09 18:33:00,76.0,55.0,29.80,East,82,1.0,7.0,49,0.00,,,0.00,,2013-07-09 23:33:00,
2013-07-09 18:43:00,76.0,55.0,29.80,East,82,1.0,7.0,49,0.00,,,0.00,,2013-07-09 23:43:00,
2013-07-09 18:53:00,77.0,55.0,29.82,East,93,1.0,8.0,46,0.00,,,0.00,,2013-07-09 23:53:00,
2013-07-09 19:01:00,77.0,55.0,29.82,East,93,1.0,8.0,46,0.00,,,0.00,,2013-07-10 00:01:00,
2013-07-09 19:11:00,77.0,55.0,29.82,East,93,1.0,8.0,46,0.00,,,0.00,,2013-07-10 00:11:00,
2013-07-09 19:33:00,69.0,58.0,29.85,WSW,241,1.0,16.0,67,0.01,,,0.01,,2013-07-10 00:33:00,
2013-07-09 20:01:00,69.0,60.0,29.84,WSW,243,1.0,3.0,72,0.01,,,0.01,,2013-07-10 01:01:00,
2013-07-09 20:33:00,68.0,61.0,29.85,WSW,246,1.0,5.0,77,0.01,,,0.02,,2013-07-10 01:33:00,
2013-07-09 20:43:00,68.0,61.0,29.85,WSW,246,1.0,5.0,77,0.01,,,0.02,,2013-07-10 01:43:00,
2013-07-09 20:53:00,73.0,57.0,29.79,SW,234,5.0,14.0,57,0.01,,,0.02,,2013-07-10 01:53:00,
2013-07-09 21:01:00,73.0,57.0,29.79,SW,234,5.0,14.0,57,0.01,,,0.02,,2013-07-10 02:01:00,
2013-07-09 21:11:00,73.0,57.0,29.79,SW,234,5.0,14.0,57,0.01,,,0.02,,2013-07-10 02:11:00,
2013-07-09 21:22:00,73.0,56.0,29.78,West,269,5.0,16.0,56,0.00,,,0.02,,2013-07-10 02:22:00,
2013-07-09 21:34:00,73.0,56.0,29.78,West,269,5.0,16.0,56,0.00,,,0.02,,2013-07-10 02:34:00,
2013-07-09 21:43:00,73.0,56.0,29.78,West,269,5.0,16.0,56,0.00,,,0.02,,2013-07-10 02:43:00,
2013-07-09 21:53:00,73.0,57.0,29.75,WNW,291,5.0,12.0,57,0.00,,,0.02,,2013-07-10 02:53:00,
2013-07-09 22:01:00,73.0,57.0,29.75,WNW,291,5.0,12.0,57,0.00,,,0.02,,2013-07-10 03:01:00,
2013-07-09 22:11:00,73.0,57.0,29.75,WNW,291,5.0,12.0,57,0.00,,,0.02,,2013-07-10 03:11:00,
2013-07-09 22:22:00,72.0,56.0,29.76,North,353,2.0,10.0,58,0.00,,,0.02,,2013-07-10 03:22:00,
2013-07-09 22:32:00,72.0,56.0,29.76,North,353,2.0,10.0,58,0.00,,,0.02,,2013-07-10 03:32:00,
2013-07-09 22:43:00,72.0,56.0,29.76,North,353,2.0,10.0,58,0.00,,,0.02,,2013-07-10 03:43:00,
2013-07-09 22:52:00,71.0,57.0,29.76,ENE,62,7.0,17.0,61,0.00,,,0.02,,2013-07-10 03:52:00,
2013-07-09 23:01:00,71.0,57.0,29.76,ENE,62,7.0,17.0,61,0.00,,,0.02,,2013-07-10 04:01:00,
2013-07-09 23:11:00,71.0,57.0,29.76,ENE,62,7.0,17.0,61,0.00,,,0.02,,2013-07-10 04:11:00,
2013-07-09 23:22:00,71.0,57.0,29.77,NNW,346,3.0,16.0,62,0.00,,,0.02,,2013-07-10 04:22:00,
2013-07-09 23:32:00,71.0,57.0,29.77,NNW,346,3.0,16.0,62,0.00,,,0.02,,2013-07-10 04:32:00,
2013-07-09 23:43:00,71.0,57.0,29.77,NNW,346,3.0,16.0,62,0.00,,,0.02,,2013-07-10 04:43:00,
2013-07-09 23:52:00,70.0,57.0,29.78,WNW,298,12.0,20.0,63,0.00,,,0.02,,2013-07-10 04:52:00,